Aérodrome :
LOGIN :

S'inscrire | Disclaimer

   EN    FR    IT 

 










Légende :    VFR   VFR Marginal   IFR   IFR Intensif   IFR Très Intensif
Visi : 
Plafond : 
>= 8 km
>= 3000ft
5 à 8 km
1000 à 3000 ft
1500m à 5 km
500 à 1000 ft
800 à 1500m
200 à 500 ft
< 800m
< 200 ft
Symboles :   Orages  Brouillard  Fortes neiges  Fortes précipitations  Vent > 20 kt
SIGMETs :   Divers  Orages  Givrage  Turbulence  Onde Orograph.  Cendres Volcan.







- Altitude de l'aérodrome : 2077 ft
- Code IATA : FMM


EDJA - Memmingen

DERNIER METAR :
  • 140750Z 23017KT 9999 FEW039 BKN051 01/M01 Q1003

METARs EXPIRÉS :
  • 140720Z 26019KT 9999 FEW025 BKN056 01/M01 Q1001
  • 140650Z 26022G32KT 9999 FEW019 BKN043 01/M01 Q1001 RESHRA
  • 140620Z 28029G39KT 1100 1000W R24/1000V1800U SHRASN VCTS FEW002 BKN005CB 00/M00 Q1000
  • 140550Z 24032G46KT 9999 FEW020 BKN023 06/03 Q0999
  • 140520Z 23024KT 9999 SCT021 05/02 Q0997

TAF TAF EDJA
Valide du 14 à 06h jusqu'au 14 à 15h UTC


140500Z 1406/1415 24025G35KT 9999 BKN030
TEMPO 1406/1409 25030G45KT SHRA BKN020CB
PROB40
TEMPO 1406/1408 26040G55KT 3500 TSRA
TEMPO 1413/1415 3500 SHRA BKN020TCU
Pas de NOTAMs connus pour ce terrain.
3 SIGMETs publiés pour la FIR München (EDMM) :
 
Orages en lignes de grains
EDMM SIGMET 4 VALID 140620/140800 EDZM
EDMM MUNCHEN FIR SQL TS OBS APRX 20NM WID LINE BTN N4740 E00945 - N4902 E01255 TOP FL220 MOV E 50KT NC=
Turbulence forte
EDMM SIGMET 3 VALID 140430/140800 EDZM
EDMM MUNCHEN FIR SEV TURB FCST S OF LINE N4800 E00933 - N4802 E01250 SFC/FL150 STNR NC=
Turbulence forte
EDMM SIGMET 2 VALID 140417/140800 EDZM
EDMM MUNCHEN FIR SEV TURB FCST S OF LINE N4855 E00959 - N4855 E01344 SFC/FL060 STNR NC=



MET'MAP, la Météo Aéronautique d'un coup d'oeil ! - Copyright ORBIFLY Décembre 2007 - Disclaimer

ORBIFLY MET'MAP TEAM :

Programmation & Développement : Alexandra Zaïnal
Conception & Développement : Baudouin d'Aumeries
Co-Programmation & Développement : Marc-Olivier Méhu
Soutien technique & logistique : Manuel Goepfert

Contact : metmap@orbifly.com




SOURCES & CREDITS :

   NOAA